createdAt,value
2023-04-12T15:22:23.943Z,9.20
2023-04-12T15:24:34.948Z,7.87
2023-04-12T15:25:34.908Z,7.85
2023-04-12T15:26:34.951Z,8.95
2023-04-12T15:27:34.920Z,8.17
2023-04-12T15:28:34.910Z,8.44
2023-04-12T15:29:34.924Z,7.66
2023-04-12T15:30:34.937Z,7.63
2023-04-12T15:31:34.904Z,7.97
2023-04-12T15:32:36.537Z,7.45
2023-04-12T15:33:34.861Z,7.69
2023-04-12T15:34:35.311Z,7.36
2023-04-12T15:35:34.902Z,6.86
2023-04-12T15:36:34.872Z,6.30
2023-04-12T15:37:34.996Z,7.65
2023-04-12T15:38:34.940Z,7.72
2023-04-12T15:39:35.026Z,8.13
2023-04-12T15:40:35.062Z,7.94
2023-04-12T15:41:35.055Z,7.78
2023-04-12T15:42:35.088Z,7.18
2023-04-12T15:43:35.073Z,7.49
2023-04-12T15:44:35.141Z,8.12
2023-04-12T15:45:35.180Z,8.96
2023-04-12T15:46:35.180Z,8.12
2023-04-12T15:47:35.180Z,7.52
2023-04-12T15:48:35.226Z,7.61
2023-04-12T15:49:35.928Z,8.33
2023-04-12T15:50:35.216Z,8.95
2023-04-12T15:51:35.276Z,8.49
2023-04-12T15:52:35.335Z,8.61
2023-04-12T15:53:35.342Z,8.48
2023-04-12T15:54:35.430Z,8.22
2023-04-12T15:55:35.420Z,8.85
2023-04-12T15:56:35.564Z,8.65
2023-04-12T15:57:35.514Z,8.95
2023-04-12T15:58:35.578Z,8.68
2023-04-12T15:59:35.578Z,8.59
2023-04-12T16:00:35.630Z,8.16
2023-04-12T16:01:35.815Z,9.22
2023-04-12T16:02:35.773Z,8.25
2023-04-12T16:03:35.762Z,8.43
2023-04-12T16:04:35.787Z,8.93
2023-04-12T16:05:35.809Z,7.66
2023-04-12T16:06:35.884Z,8.22
2023-04-12T16:07:35.866Z,9.11
2023-04-12T16:08:35.916Z,8.32
2023-04-12T16:09:35.970Z,7.83
2023-04-12T16:10:36.022Z,8.81
2023-04-12T16:11:36.068Z,8.17
2023-04-12T16:12:36.092Z,7.73
2023-04-12T16:13:36.147Z,8.48
2023-04-12T16:14:36.137Z,7.27
2023-04-12T16:15:36.229Z,7.97
2023-04-12T16:16:36.241Z,7.82
2023-04-12T16:17:36.227Z,8.35
2023-04-12T16:18:36.276Z,8.22
2023-04-12T16:19:36.269Z,6.95
2023-04-12T16:20:36.301Z,7.78
2023-04-12T16:21:36.341Z,6.94
2023-04-12T16:22:36.357Z,8.24
2023-04-12T16:23:36.361Z,7.44
2023-04-12T16:24:36.435Z,6.70
2023-04-12T16:25:36.563Z,7.52
2023-04-12T16:26:36.483Z,6.71
2023-04-12T16:27:36.512Z,7.02
2023-04-12T16:28:36.556Z,6.31
2023-04-12T16:29:36.614Z,6.76
2023-04-12T16:30:36.638Z,6.86
2023-04-12T16:31:36.701Z,6.57
2023-04-12T16:32:36.729Z,6.30
2023-04-12T16:33:36.732Z,6.82
2023-04-12T16:34:36.798Z,6.00
2023-04-12T16:35:36.810Z,6.07
2023-04-12T16:36:36.817Z,6.08
2023-04-12T16:37:36.819Z,6.59
2023-04-12T16:38:36.869Z,6.05
2023-04-12T16:39:36.883Z,5.98
2023-04-12T16:40:36.996Z,6.09
2023-04-12T16:41:36.943Z,5.60
2023-04-12T16:42:36.996Z,6.08
2023-04-12T16:43:36.994Z,5.40
2023-04-12T16:44:37.031Z,4.65
2023-04-12T16:45:37.058Z,5.73
2023-04-12T16:46:37.113Z,5.72
2023-04-12T16:47:37.231Z,5.54
2023-04-12T16:48:37.134Z,6.30
2023-04-12T16:49:37.209Z,4.70
2023-04-12T16:50:37.209Z,5.28
2023-04-12T16:51:37.588Z,5.27
2023-04-12T16:52:37.333Z,5.11
2023-04-12T16:53:37.369Z,4.42
2023-04-12T16:54:37.406Z,4.50
2023-04-12T16:55:37.412Z,4.85
2023-04-12T16:56:37.452Z,4.13
2023-04-12T16:57:37.468Z,4.05
2023-04-12T16:58:37.511Z,3.96
2023-04-12T16:59:37.568Z,4.05
2023-04-12T17:00:37.568Z,4.66
2023-04-12T17:01:37.598Z,4.51
2023-04-12T17:02:37.776Z,4.28
2023-04-12T17:03:37.656Z,3.44
2023-04-12T17:04:37.732Z,3.27
2023-04-12T17:05:37.696Z,3.35
2023-04-12T17:07:37.782Z,3.59
2023-04-12T17:08:37.780Z,3.43
2023-04-12T17:09:37.826Z,4.18
2023-04-12T17:10:37.852Z,3.77
2023-04-12T17:11:37.906Z,3.62
2023-04-12T17:12:37.886Z,3.21
2023-04-12T17:13:37.942Z,3.81
2023-04-12T17:14:37.984Z,3.50
2023-04-12T17:15:37.969Z,3.41
2023-04-12T17:16:38.196Z,4.20
2023-04-12T17:17:38.098Z,4.11
2023-04-12T17:18:38.063Z,3.70
2023-04-12T17:19:38.095Z,4.09
2023-04-12T17:20:38.110Z,3.87
2023-04-12T17:21:38.157Z,3.83
2023-04-12T17:22:38.210Z,3.78
2023-04-12T17:23:38.258Z,4.47
2023-04-12T17:24:39.156Z,4.06
2023-04-12T17:25:38.288Z,4.92
2023-04-12T17:26:38.313Z,3.85
2023-04-12T17:27:38.350Z,4.36
2023-04-12T17:28:38.382Z,3.93
2023-04-12T17:29:38.477Z,4.82
2023-04-12T17:30:38.451Z,4.76
2023-04-12T17:31:38.432Z,4.41
2023-04-12T17:32:38.479Z,4.25
2023-04-12T17:33:39.038Z,4.87
2023-04-12T17:34:38.566Z,4.55
2023-04-12T17:35:38.500Z,5.04
2023-04-12T17:36:38.563Z,4.16
2023-04-12T17:37:38.586Z,4.72
2023-04-12T17:38:38.586Z,4.10
2023-04-12T17:39:38.643Z,4.72
2023-04-12T17:40:38.650Z,4.76
2023-04-12T17:41:39.073Z,3.77
2023-04-12T17:42:38.689Z,4.03
2023-04-12T17:43:38.740Z,4.06
2023-04-12T17:44:38.724Z,4.55
2023-04-12T17:45:38.758Z,4.73
2023-04-12T17:46:38.781Z,4.20
2023-04-12T17:47:38.853Z,4.81
2023-04-12T17:48:38.847Z,4.72
2023-04-12T17:49:38.916Z,4.66
2023-04-12T17:50:38.909Z,4.45
2023-04-12T17:51:38.910Z,4.78
2023-04-12T17:52:39.042Z,4.09
2023-04-12T17:53:38.996Z,4.07
2023-04-12T17:54:38.999Z,3.69
2023-04-12T17:55:39.022Z,3.99
2023-04-12T17:56:39.050Z,3.53
2023-04-12T17:57:39.122Z,4.12
2023-04-12T17:58:39.089Z,4.28
2023-04-12T17:59:39.142Z,4.43
2023-04-12T18:00:39.195Z,4.66
2023-04-12T18:01:39.293Z,4.67
2023-04-12T18:02:39.319Z,4.47
2023-04-12T18:03:39.515Z,4.08
2023-04-12T18:04:39.505Z,5.19
2023-04-12T18:05:39.392Z,4.10
2023-04-12T18:06:39.394Z,3.73
2023-04-12T18:07:39.463Z,5.39
2023-04-12T18:08:39.516Z,4.51
2023-04-12T18:09:39.555Z,4.91
2023-04-12T18:10:39.555Z,4.70
2023-04-12T18:11:39.585Z,4.73
2023-04-12T18:12:39.630Z,4.24
2023-04-12T18:13:39.669Z,4.88
2023-04-12T18:14:39.694Z,3.94
2023-04-12T18:15:39.732Z,4.39
2023-04-12T18:16:39.739Z,4.58
2023-04-12T18:17:39.863Z,4.58
2023-04-12T18:18:39.820Z,4.47
2023-04-12T18:19:39.868Z,4.47
2023-04-12T18:20:39.938Z,4.67
2023-04-12T18:21:39.928Z,4.90
2023-04-12T18:22:39.995Z,5.15
2023-04-12T18:23:40.013Z,4.94
2023-04-12T18:24:40.072Z,4.40
2023-04-12T18:25:40.072Z,4.29
2023-04-12T18:26:40.146Z,4.59
2023-04-12T18:27:40.178Z,4.82
2023-04-12T18:28:40.998Z,4.67
2023-04-12T18:29:40.284Z,4.48
2023-04-12T18:30:40.256Z,4.81
2023-04-12T18:31:40.296Z,4.82
2023-04-12T18:32:40.329Z,4.42
2023-04-12T18:33:40.298Z,4.47
2023-04-12T18:34:40.329Z,5.35
2023-04-12T18:35:40.325Z,4.73
2023-04-12T18:36:40.387Z,4.77
2023-04-12T18:37:40.446Z,3.86
2023-04-12T18:38:40.454Z,5.33
2023-04-12T18:39:40.543Z,4.59
2023-04-12T18:40:40.528Z,5.18
2023-04-12T18:41:40.562Z,5.44
2023-04-12T18:42:40.572Z,5.06
2023-04-12T18:43:40.588Z,4.86
2023-04-12T18:44:40.625Z,5.08
2023-04-12T18:45:40.602Z,4.85
2023-04-12T18:46:40.679Z,4.28
2023-04-12T18:47:40.685Z,5.01
2023-04-12T18:48:40.673Z,4.45
2023-04-12T18:49:40.714Z,4.96
2023-04-12T18:50:40.727Z,4.63
2023-04-12T18:51:40.728Z,5.13
2023-04-12T18:52:40.780Z,4.42
2023-04-12T18:53:40.869Z,5.64
2023-04-12T18:54:40.859Z,5.30
2023-04-12T18:55:40.882Z,5.61
2023-04-12T18:56:40.925Z,5.28
2023-04-12T18:57:40.928Z,5.37
2023-04-12T18:58:54.148Z,6.12
2023-04-12T18:59:42.023Z,4.86
2023-04-12T19:00:40.972Z,6.29
2023-04-12T19:01:41.039Z,5.80
2023-04-12T19:02:41.143Z,6.52
2023-04-12T19:03:40.979Z,5.51
2023-04-12T19:04:40.946Z,5.05
2023-04-12T19:05:40.944Z,5.27
2023-04-12T19:06:40.945Z,5.64
2023-04-12T19:07:40.904Z,5.85
2023-04-12T19:08:42.498Z,6.15
2023-04-12T19:09:40.877Z,5.61
2023-04-12T19:10:40.899Z,5.33
2023-04-12T19:11:40.876Z,5.23
2023-04-12T19:12:40.896Z,5.22
2023-04-12T19:13:40.897Z,5.09
2023-04-12T19:14:40.898Z,5.27
2023-04-12T19:15:40.922Z,4.52
2023-04-12T19:16:40.999Z,4.39
2023-04-12T19:17:40.953Z,4.83
2023-04-12T19:18:40.973Z,5.01
2023-04-12T19:19:40.971Z,4.05
2023-04-12T19:20:41.068Z,4.53
2023-04-12T19:21:41.039Z,4.47
2023-04-12T19:22:41.061Z,4.68
2023-04-12T19:23:41.107Z,4.97
2023-04-12T19:24:41.163Z,4.58
2023-04-12T19:25:41.157Z,6.13
2023-04-12T19:26:41.176Z,8.21
2023-04-12T19:27:41.281Z,7.44
2023-04-12T19:28:41.279Z,7.57
2023-04-12T19:29:41.346Z,7.21
2023-04-12T19:30:41.417Z,7.27
2023-04-12T19:31:41.407Z,6.87
2023-04-12T19:32:41.468Z,6.96
2023-04-12T19:33:41.475Z,7.24
2023-04-12T19:34:41.531Z,7.27
2023-04-12T19:35:41.603Z,6.05
2023-04-12T19:36:41.589Z,6.43
2023-04-12T19:37:41.647Z,6.49
2023-04-12T19:38:41.690Z,6.12
2023-04-12T19:39:41.620Z,6.27
2023-04-12T19:40:41.719Z,6.23
2023-04-12T19:41:41.705Z,5.85
2023-04-12T19:42:41.698Z,6.40
2023-04-12T19:43:41.719Z,5.83
2023-04-12T19:44:41.756Z,5.16
2023-04-12T19:45:41.851Z,6.15
2023-04-12T19:46:41.841Z,5.58
2023-04-12T19:47:41.900Z,7.04
2023-04-12T19:48:41.938Z,5.71
2023-04-12T19:49:41.941Z,6.61
2023-04-12T19:50:41.979Z,5.66
2023-04-12T19:51:42.037Z,5.95
2023-04-12T19:52:42.063Z,6.58
2023-04-12T19:53:42.227Z,7.29
2023-04-12T19:54:42.094Z,6.27
2023-04-12T19:55:42.143Z,6.47
2023-04-12T19:56:42.144Z,7.27
2023-04-12T19:57:42.194Z,6.93
2023-04-12T19:58:42.212Z,7.64
2023-04-12T19:59:42.224Z,6.67
2023-04-12T20:00:42.275Z,7.57
2023-04-12T20:01:42.351Z,7.67
2023-04-12T20:02:42.368Z,6.95
2023-04-12T20:03:42.428Z,8.92
2023-04-12T20:04:42.423Z,7.44
2023-04-12T20:05:42.449Z,7.50
2023-04-12T20:06:42.482Z,6.61
2023-04-12T20:07:42.481Z,6.12
2023-04-12T20:08:42.502Z,5.50
2023-04-12T20:09:42.499Z,6.93
2023-04-12T20:10:42.591Z,6.76
2023-04-12T20:11:43.027Z,7.48
2023-04-12T20:12:42.619Z,6.64
2023-04-12T20:13:42.682Z,6.69
2023-04-12T20:14:42.684Z,6.24
2023-04-12T20:15:42.704Z,7.26
2023-04-12T20:16:42.920Z,6.55
2023-04-12T20:17:42.798Z,6.71
2023-04-12T20:18:42.734Z,7.21
2023-04-12T20:19:42.783Z,7.27
2023-04-12T20:20:42.803Z,6.66
2023-04-12T20:21:42.796Z,6.91
2023-04-12T20:22:42.800Z,7.41
2023-04-12T20:23:42.859Z,8.22
2023-04-12T20:24:42.889Z,8.03
2023-04-12T20:25:42.926Z,8.57
2023-04-12T20:26:42.913Z,8.26
2023-04-12T20:27:42.971Z,8.09
2023-04-12T20:28:42.994Z,7.92
2023-04-12T20:29:43.073Z,8.18
2023-04-12T20:30:43.191Z,7.83
2023-04-12T20:31:43.151Z,8.53
2023-04-12T20:32:43.305Z,7.59
2023-04-12T20:33:43.165Z,8.48
2023-04-12T20:34:43.170Z,7.41
2023-04-12T20:35:43.144Z,7.97
2023-04-12T20:36:43.116Z,8.41
2023-04-12T20:37:43.175Z,7.84
2023-04-12T20:38:43.113Z,8.04
2023-04-12T20:39:43.106Z,7.28
2023-04-12T20:40:43.119Z,7.76
2023-04-12T20:41:43.111Z,6.90
2023-04-12T20:42:43.132Z,7.85
2023-04-12T20:43:43.143Z,7.00
2023-04-12T20:44:43.213Z,7.53
2023-04-12T20:45:43.259Z,7.01
2023-04-12T20:46:43.312Z,7.54
2023-04-12T20:47:43.330Z,6.73
2023-04-12T20:48:43.332Z,4.33
2023-04-12T20:49:43.404Z,5.98
2023-04-12T20:50:43.391Z,5.89
2023-04-12T20:51:43.410Z,6.83
2023-04-12T20:52:43.469Z,6.86
2023-04-12T20:53:43.521Z,7.16
2023-04-12T20:54:43.503Z,6.47
2023-04-12T20:55:43.553Z,6.09
2023-04-12T20:56:43.566Z,6.98
2023-04-12T20:57:43.582Z,7.28
2023-04-12T20:58:43.609Z,6.21
2023-04-12T20:59:43.572Z,6.11
2023-04-12T21:00:43.598Z,6.26
2023-04-12T21:03:03.447Z,6.49
2023-04-12T21:04:03.367Z,6.28
2023-04-12T21:05:03.327Z,6.77
2023-04-12T21:06:03.324Z,6.66
2023-04-12T21:07:03.341Z,5.50
2023-04-12T21:08:03.330Z,6.26
2023-04-12T21:09:03.272Z,6.08
2023-04-12T21:10:03.276Z,6.51
2023-04-12T21:11:03.294Z,5.94
2023-04-12T21:12:03.270Z,6.31
2023-04-12T21:13:03.273Z,5.96
2023-04-12T21:14:03.260Z,5.40
2023-04-12T21:15:03.265Z,5.36
2023-04-12T21:16:03.332Z,5.11
2023-04-12T21:17:03.254Z,4.94
2023-04-12T21:18:03.278Z,5.21
2023-04-12T21:19:03.243Z,5.50
2023-04-12T21:20:03.216Z,5.77
2023-04-12T21:21:03.250Z,5.10
2023-04-12T21:22:03.216Z,4.15
2023-04-12T21:23:04.690Z,5.15
2023-04-12T21:24:03.240Z,4.58
2023-04-12T21:25:03.188Z,5.00
2023-04-12T21:26:03.199Z,4.40
2023-04-12T21:27:03.198Z,4.39
2023-04-12T21:28:03.148Z,4.49
2023-04-12T21:29:03.158Z,5.08
2023-04-12T21:30:03.175Z,5.23
2023-04-12T21:31:03.222Z,4.27
2023-04-12T21:32:03.230Z,4.87
2023-04-12T21:33:03.200Z,4.96
2023-04-12T21:34:03.147Z,4.93
2023-04-12T21:35:03.181Z,4.44
2023-04-12T21:36:03.138Z,4.55
2023-04-12T21:37:03.115Z,4.42
2023-04-12T21:38:03.122Z,4.39
2023-04-12T21:39:03.087Z,4.38
2023-04-12T21:40:03.117Z,4.30
2023-04-12T21:41:03.094Z,4.13
2023-04-12T21:42:03.086Z,4.68
2023-04-12T21:43:03.077Z,4.37
2023-04-12T21:44:03.097Z,4.17
2023-04-12T21:45:03.081Z,4.42
2023-04-12T21:46:03.122Z,4.39
2023-04-12T21:47:03.036Z,4.61
2023-04-12T21:48:03.088Z,4.54
2023-04-12T21:49:03.014Z,4.67
2023-04-12T21:50:03.036Z,3.89
2023-04-12T21:51:03.046Z,4.17
2023-04-12T21:52:03.065Z,4.32
2023-04-12T21:53:03.024Z,4.63
2023-04-12T21:54:03.013Z,4.09
2023-04-12T21:55:03.017Z,4.33
2023-04-12T21:56:03.018Z,4.44
2023-04-12T21:57:03.019Z,4.08
2023-04-12T21:58:03.012Z,3.98
2023-04-12T21:59:05.136Z,3.38
2023-04-12T22:00:02.989Z,3.74
2023-04-12T22:01:03.089Z,5.25
2023-04-12T22:02:03.135Z,5.82
2023-04-12T22:03:03.106Z,5.86
2023-04-12T22:04:02.982Z,5.81
2023-04-12T22:05:02.953Z,5.37
2023-04-12T22:06:05.162Z,5.21
2023-04-12T22:07:03.044Z,5.43
2023-04-12T22:08:03.059Z,4.37
2023-04-12T22:09:03.058Z,4.16
2023-04-12T22:10:03.109Z,2.50
2023-04-12T22:11:03.162Z,2.96
2023-04-12T22:12:03.168Z,2.10
2023-04-12T22:13:03.209Z,1.50
2023-04-12T22:14:03.219Z,0.87
2023-04-12T22:15:03.264Z,0.86
2023-04-12T22:16:03.300Z,0.97
2023-04-12T22:17:03.430Z,0.82
2023-04-12T22:18:03.457Z,0.91
2023-04-12T22:19:03.428Z,0.91
2023-04-12T22:20:03.494Z,0.67
2023-04-12T22:21:03.526Z,0.66
2023-04-12T22:22:03.496Z,0.65
2023-04-12T22:23:03.603Z,0.69
2023-04-12T22:24:03.562Z,0.65
2023-04-12T22:25:03.631Z,0.55
2023-04-12T22:26:03.674Z,0.80
2023-04-12T22:27:03.702Z,0.94
2023-04-12T22:28:03.732Z,0.46
2023-04-12T22:29:03.745Z,0.81
2023-04-12T22:30:03.744Z,0.62
2023-04-12T22:31:03.829Z,0.61
2023-04-12T22:32:03.808Z,0.50
2023-04-12T22:33:03.856Z,0.40
2023-04-12T22:34:03.839Z,0.60
2023-04-12T22:35:08.494Z,0.55
2023-04-12T22:36:04.912Z,0.56
2023-04-12T22:37:03.892Z,0.95
2023-04-12T22:38:03.869Z,0.95
2023-04-12T22:39:03.856Z,0.64
2023-04-12T22:40:03.872Z,0.68
2023-04-12T22:41:03.882Z,0.67
2023-04-12T22:42:03.859Z,0.62
2023-04-12T22:43:03.822Z,0.70
2023-04-12T22:44:03.843Z,0.41
2023-04-12T22:45:03.794Z,0.63
2023-04-12T22:46:03.945Z,0.41
2023-04-12T22:47:03.819Z,0.43
2023-04-12T22:48:03.848Z,0.31
2023-04-12T22:49:03.816Z,0.34
2023-04-12T22:50:03.787Z,0.48
2023-04-12T22:51:03.837Z,0.83
2023-04-12T22:52:03.898Z,0.21
2023-04-12T22:53:03.868Z,0.50
2023-04-12T22:54:03.906Z,0.37
2023-04-12T22:55:05.583Z,0.62
2023-04-12T22:56:04.023Z,0.42
2023-04-12T22:57:04.026Z,0.55
2023-04-12T22:58:04.079Z,0.45
2023-04-12T22:59:04.108Z,0.25
2023-04-12T23:00:04.094Z,0.52
2023-04-12T23:01:04.152Z,0.44
2023-04-12T23:02:04.295Z,0.32
2023-04-12T23:03:04.365Z,0.45
2023-04-12T23:04:04.176Z,0.18
2023-04-12T23:05:04.217Z,0.41
2023-04-12T23:06:04.242Z,0.44
2023-04-12T23:07:04.224Z,0.31
2023-04-12T23:08:04.266Z,0.54
2023-04-12T23:09:04.315Z,0.33
2023-04-12T23:10:04.324Z,0.24
2023-04-12T23:11:04.398Z,0.16
2023-04-12T23:12:04.416Z,0.46
2023-04-12T23:13:04.443Z,0.26
2023-04-12T23:14:04.456Z,0.24
2023-04-12T23:15:04.489Z,0.47
2023-04-12T23:16:04.620Z,0.39
2023-04-12T23:17:04.597Z,0.40
2023-04-12T23:18:04.622Z,0.32
2023-04-12T23:19:04.576Z,0.50
2023-04-12T23:20:04.593Z,0.23
2023-04-12T23:21:04.672Z,0.39
2023-04-12T23:22:04.670Z,0.17
2023-04-12T23:23:04.659Z,0.19
2023-04-12T23:24:04.711Z,0.39
2023-04-12T23:25:04.736Z,0.45
2023-04-12T23:26:04.805Z,0.53
2023-04-12T23:27:04.791Z,0.37
2023-04-12T23:28:04.828Z,0.33
2023-04-12T23:29:04.886Z,0.32
2023-04-12T23:30:04.931Z,0.36
2023-04-12T23:31:05.034Z,0.32
2023-04-12T23:32:04.982Z,0.47
2023-04-12T23:33:04.996Z,0.47
2023-04-12T23:34:05.022Z,0.25
2023-04-12T23:35:05.059Z,0.38
2023-04-12T23:36:05.090Z,0.54
2023-04-12T23:37:05.128Z,0.33
2023-04-12T23:38:05.132Z,0.10
2023-04-12T23:39:05.170Z,0.57
2023-04-12T23:40:05.230Z,0.41
2023-04-12T23:41:05.274Z,0.28
2023-04-12T23:42:05.271Z,0.28
2023-04-12T23:43:05.295Z,0.39
2023-04-12T23:44:05.301Z,0.46
2023-04-12T23:45:05.352Z,0.34
2023-04-12T23:46:05.338Z,0.51
2023-04-12T23:47:05.405Z,0.25
2023-04-12T23:48:05.930Z,1.08
2023-04-12T23:49:05.389Z,0.26
2023-04-12T23:50:05.396Z,0.52
2023-04-12T23:51:05.504Z,0.21
2023-04-12T23:52:05.497Z,0.34
2023-04-12T23:53:05.480Z,0.60
2023-04-12T23:54:05.512Z,0.42
2023-04-12T23:55:05.583Z,0.41
2023-04-12T23:56:05.634Z,0.35
2023-04-12T23:57:05.634Z,0.40
2023-04-12T23:58:05.790Z,0.56
2023-04-12T23:59:05.862Z,0.37
